Time;durP1;ratioP1;P1;durP2;ratioP2;P2;SDS_P1;SDS_P2;PMS_P1;PMS_P2;Temp;Humidity;BMP_temperature;BMP_pressure;BME280_temperature;BME280_humidity;BME280_pressure;Samples;Min_cycle;Max_cycle;Signal;HPM_P1;HPM_P2
2024/01/16 00:00:32;;;;;;;6.27;0.97;;;1.30;90.20;;;;;;5005488;28;20060;-86
2024/01/16 00:02:57;;;;;;;6.17;1.10;;;1.30;90.20;;;;;;5032798;28;20097;-86
2024/01/16 00:05:23;;;;;;;7.27;0.90;;;1.30;90.30;;;;;;5003951;28;20034;-85
2024/01/16 00:07:49;;;;;;;5.17;1.00;;;1.30;90.20;;;;;;5007195;28;20048;-85
2024/01/16 00:10:14;;;;;;;7.43;0.97;;;1.30;90.20;;;;;;5004837;28;20045;-85
2024/01/16 00:12:41;;;;;;;7.83;1.90;;;1.30;90.20;;;;;;5006253;28;20034;-85
2024/01/16 00:15:07;;;;;;;5.53;1.03;;;1.30;90.20;;;;;;5001266;28;20072;-85
2024/01/16 00:17:32;;;;;;;6.40;1.13;;;1.30;90.20;;;;;;5006345;28;20030;-86
2024/01/16 00:20:01;;;;;;;3.27;0.60;;;1.30;90.20;;;;;;5024360;28;20089;-86
2024/01/16 00:22:29;;;;;;;5.00;2.20;;;1.30;90.20;;;;;;5023435;28;20038;-86
2024/01/16 00:24:55;;;;;;;5.33;1.13;;;1.30;90.20;;;;;;4999885;28;20092;-85
2024/01/16 00:27:21;;;;;;;3.73;0.57;;;1.30;90.20;;;;;;5023915;28;20038;-84
2024/01/16 00:29:47;;;;;;;3.30;0.40;;;1.30;90.20;;;;;;5003330;28;20038;-84
2024/01/16 00:32:15;;;;;;;4.77;0.87;;;1.30;90.20;;;;;;5025966;28;20029;-84
2024/01/16 00:34:42;;;;;;;5.30;1.07;;;1.30;90.20;;;;;;5003293;28;20489;-86
2024/01/16 00:37:08;;;;;;;9.60;1.63;;;1.30;90.20;;;;;;5006221;28;20041;-86
2024/01/16 00:39:33;;;;;;;7.07;0.90;;;1.30;90.10;;;;;;4998063;28;20041;-86
2024/01/16 00:41:59;;;;;;;3.40;0.53;;;1.30;90.10;;;;;;5023810;28;20069;-86
2024/01/16 00:44:25;;;;;;;5.80;0.80;;;1.30;90.10;;;;;;5023441;28;20046;-85
2024/01/16 00:46:51;;;;;;;1.97;0.60;;;1.30;90.10;;;;;;5020592;28;20054;-85
2024/01/16 00:49:16;;;;;;;5.13;0.77;;;1.30;90.10;;;;;;5005470;28;20111;-85
2024/01/16 00:51:42;;;;;;;4.93;0.70;;;1.30;90.10;;;;;;5002858;28;20050;-83
2024/01/16 00:54:07;;;;;;;6.07;1.10;;;1.30;90.10;;;;;;5004221;28;20045;-83
2024/01/16 00:56:35;;;;;;;6.03;0.77;;;1.30;90.10;;;;;;5018795;28;20038;-83
2024/01/16 00:59:01;;;;;;;5.80;0.87;;;1.30;90.10;;;;;;5023136;28;20037;-83
2024/01/16 01:01:27;;;;;;;5.57;0.77;;;1.30;90.10;;;;;;5004812;28;20041;-83
2024/01/16 01:03:53;;;;;;;4.17;0.70;;;1.30;90.10;;;;;;5006236;28;20499;-83
2024/01/16 01:06:19;;;;;;;2.77;0.83;;;1.30;90.30;;;;;;5002251;28;20030;-83
2024/01/16 01:08:44;;;;;;;5.10;0.80;;;1.30;90.10;;;;;;5003629;28;20180;-83
2024/01/16 01:11:11;;;;;;;5.43;0.90;;;1.30;90.10;;;;;;5006778;28;20112;-83
2024/01/16 01:13:36;;;;;;;4.13;0.80;;;1.30;90.10;;;;;;5002223;28;20052;-83
2024/01/16 01:16:02;;;;;;;4.50;0.83;;;1.30;90.10;;;;;;5005692;28;20552;-83
2024/01/16 01:18:28;;;;;;;7.00;0.83;;;1.30;90.10;;;;;;5004833;28;20072;-83
2024/01/16 01:20:53;;;;;;;3.53;0.80;;;1.30;90.10;;;;;;5004210;28;20056;-83
2024/01/16 01:23:19;;;;;;;7.67;1.13;;;1.30;90.10;;;;;;5022581;28;20407;-83
2024/01/16 01:25:44;;;;;;;5.63;0.70;;;1.30;90.10;;;;;;5003536;28;20045;-83
2024/01/16 01:28:11;;;;;;;3.50;0.70;;;1.30;90.00;;;;;;5007383;28;20033;-85
2024/01/16 01:30:37;;;;;;;5.03;0.77;;;1.30;90.10;;;;;;5000244;28;20136;-84
2024/01/16 01:33:03;;;;;;;8.40;0.90;;;1.30;90.20;;;;;;5020136;28;20397;-84
2024/01/16 01:35:29;;;;;;;6.07;0.83;;;1.30;90.00;;;;;;5021793;28;20099;-84
2024/01/16 01:37:54;;;;;;;6.33;0.60;;;1.30;90.00;;;;;;5020112;28;20452;-84
2024/01/16 01:40:20;;;;;;;5.87;0.70;;;1.30;90.00;;;;;;5008924;28;20042;-84
2024/01/16 01:42:46;;;;;;;4.63;0.70;;;1.30;90.00;;;;;;5014647;28;20068;-84
2024/01/16 01:45:12;;;;;;;4.93;0.50;;;1.30;90.20;;;;;;4998979;28;20528;-84
2024/01/16 01:47:39;;;;;;;5.47;0.70;;;1.30;90.00;;;;;;5005714;28;20492;-84
2024/01/16 01:50:06;;;;;;;2.40;0.70;;;1.30;90.00;;;;;;5005813;28;20430;-84
2024/01/16 01:52:33;;;;;;;4.33;0.60;;;1.30;90.00;;;;;;5008158;28;20048;-84
2024/01/16 01:55:01;;;;;;;2.93;0.67;;;1.30;90.00;;;;;;5023814;28;20219;-84
2024/01/16 01:57:27;;;;;;;4.40;0.80;;;1.30;90.00;;;;;;5026464;28;20049;-84
2024/01/16 01:59:53;;;;;;;4.80;0.60;;;1.30;90.00;;;;;;5007171;28;20566;-84
2024/01/16 02:02:20;;;;;;;6.23;0.70;;;1.30;89.90;;;;;;5010133;28;20038;-84
2024/01/16 02:04:46;;;;;;;4.13;0.70;;;1.30;89.80;;;;;;5007604;28;20145;-84
2024/01/16 02:07:12;;;;;;;5.50;0.73;;;1.20;89.70;;;;;;5025655;28;20049;-85
2024/01/16 02:09:38;;;;;;;4.13;0.73;;;1.30;89.80;;;;;;5009104;28;20046;-85
2024/01/16 02:12:05;;;;;;;3.37;0.50;;;1.20;89.60;;;;;;5024157;28;20038;-85
2024/01/16 02:14:30;;;;;;;4.70;0.90;;;1.20;89.60;;;;;;5009775;28;20061;-84
2024/01/16 02:16:56;;;;;;;7.40;0.83;;;1.20;89.50;;;;;;5020635;28;20069;-84
2024/01/16 02:19:22;;;;;;;5.50;0.90;;;1.20;89.50;;;;;;5009021;28;20029;-84
2024/01/16 02:21:48;;;;;;;4.40;0.80;;;1.20;89.60;;;;;;5011368;28;20034;-84
2024/01/16 02:24:16;;;;;;;5.50;0.60;;;1.20;89.60;;;;;;5011331;28;20053;-84
2024/01/16 02:26:42;;;;;;;4.97;0.80;;;1.20;89.60;;;;;;5010260;28;20029;-84
2024/01/16 02:29:08;;;;;;;3.17;0.50;;;1.20;89.50;;;;;;5020247;28;20037;-84
2024/01/16 02:31:33;;;;;;;4.30;0.77;;;1.20;89.40;;;;;;5026818;28;20393;-84
2024/01/16 02:34:00;;;;;;;9.30;0.70;;;1.20;89.50;;;;;;5022427;28;20099;-84
2024/01/16 02:36:26;;;;;;;7.27;2.20;;;1.20;89.50;;;;;;5006012;28;20049;-85
2024/01/16 02:38:52;;;;;;;7.93;0.97;;;1.20;89.60;;;;;;5007340;28;20041;-85
2024/01/16 02:41:18;;;;;;;4.80;0.67;;;1.20;89.80;;;;;;5023906;28;20346;-85
2024/01/16 02:43:44;;;;;;;5.27;1.00;;;1.20;90.00;;;;;;5009351;28;20510;-85
2024/01/16 02:46:10;;;;;;;5.33;0.87;;;1.20;90.00;;;;;;5023400;28;20045;-84
2024/01/16 02:48:39;;;;;;;2.40;0.60;;;1.20;90.10;;;;;;5032060;28;20086;-84
2024/01/16 02:51:05;;;;;;;3.93;0.50;;;1.20;90.20;;;;;;5006936;28;20037;-84
2024/01/16 02:53:31;;;;;;;4.53;0.60;;;1.20;90.20;;;;;;5025829;28;20492;-84
2024/01/16 02:56:00;;;;;;;4.13;0.60;;;1.30;90.30;;;;;;5007965;28;20037;-84
2024/01/16 02:58:27;;;;;;;6.20;1.00;;;1.30;90.30;;;;;;5025412;28;20117;-84
2024/01/16 03:00:52;;;;;;;2.47;0.70;;;1.30;90.40;;;;;;5011787;28;20061;-84
2024/01/16 03:03:18;;;;;;;3.17;0.70;;;1.30;90.40;;;;;;5024029;28;20077;-84
2024/01/16 03:05:44;;;;;;;3.20;0.83;;;1.30;90.40;;;;;;5009174;28;20037;-84
2024/01/16 03:08:10;;;;;;;3.20;0.80;;;1.30;90.40;;;;;;5020719;28;20041;-84
2024/01/16 03:10:36;;;;;;;3.33;0.60;;;1.30;90.40;;;;;;5026412;28;20064;-84
2024/01/16 03:13:02;;;;;;;4.90;0.83;;;1.30;90.30;;;;;;5020588;28;20083;-84
2024/01/16 03:15:30;;;;;;;3.13;0.60;;;1.30;90.30;;;;;;5006772;28;20037;-84
2024/01/16 03:18:00;;;;;;;4.30;0.60;;;1.30;90.30;;;;;;5007128;28;20040;-84
2024/01/16 03:20:25;;;;;;;4.67;1.10;;;1.30;90.30;;;;;;5021714;28;20034;-84
2024/01/16 03:22:51;;;;;;;4.70;0.87;;;1.30;90.30;;;;;;5024680;28;20033;-84
2024/01/16 03:25:17;;;;;;;5.37;0.80;;;1.30;90.30;;;;;;5002050;28;20034;-84
2024/01/16 03:27:44;;;;;;;4.80;1.77;;;1.30;90.30;;;;;;5008441;28;20034;-84
2024/01/16 03:30:10;;;;;;;3.90;0.77;;;1.30;90.40;;;;;;5008207;28;20044;-84
2024/01/16 03:32:37;;;;;;;8.07;1.87;;;1.30;90.20;;;;;;5006781;28;20061;-84
2024/01/16 03:35:03;;;;;;;3.67;0.50;;;1.30;90.30;;;;;;5004135;28;20036;-84
2024/01/16 03:37:28;;;;;;;4.07;0.77;;;1.30;90.30;;;;;;5022124;28;20046;-84
2024/01/16 03:39:54;;;;;;;3.57;0.73;;;1.30;90.20;;;;;;5001149;28;20452;-84
2024/01/16 03:42:20;;;;;;;5.63;1.30;;;1.30;90.30;;;;;;5007364;28;20048;-84
2024/01/16 03:44:46;;;;;;;6.13;0.70;;;1.30;90.20;;;;;;5005941;28;20489;-84
2024/01/16 03:47:12;;;;;;;6.77;1.30;;;1.30;90.40;;;;;;5005684;28;20052;-84
2024/01/16 03:49:38;;;;;;;3.23;0.67;;;1.30;90.20;;;;;;5006692;28;20030;-84
2024/01/16 03:52:04;;;;;;;3.40;0.73;;;1.30;90.20;;;;;;5022712;28;20060;-84
2024/01/16 03:54:30;;;;;;;6.60;0.83;;;1.30;90.20;;;;;;5017349;28;20500;-84
2024/01/16 03:56:56;;;;;;;3.87;0.70;;;1.30;90.20;;;;;;5008483;28;20048;-84
2024/01/16 03:59:22;;;;;;;3.93;1.27;;;1.30;90.20;;;;;;5005232;28;20121;-84
2024/01/16 04:01:48;;;;;;;4.70;0.70;;;1.30;90.40;;;;;;5022504;28;20069;-84
2024/01/16 04:04:15;;;;;;;3.87;1.00;;;1.30;90.20;;;;;;5007447;28;20046;-84
2024/01/16 04:06:41;;;;;;;4.43;0.97;;;1.30;90.10;;;;;;5011025;28;20045;-84
2024/01/16 04:09:08;;;;;;;9.60;1.10;;;1.30;90.10;;;;;;5002978;28;20493;-84
2024/01/16 04:11:34;;;;;;;7.20;1.00;;;1.30;90.00;;;;;;5021257;28;20038;-84
2024/01/16 04:13:59;;;;;;;4.97;0.80;;;1.30;90.00;;;;;;5025121;28;20137;-85
2024/01/16 04:16:25;;;;;;;4.07;0.73;;;1.30;90.00;;;;;;5022089;28;20046;-85
2024/01/16 04:18:51;;;;;;;5.17;0.67;;;1.30;90.00;;;;;;5022166;28;20408;-85
2024/01/16 04:21:16;;;;;;;5.97;0.87;;;1.30;90.00;;;;;;5002527;28;20037;-85
2024/01/16 04:23:42;;;;;;;5.30;0.83;;;1.30;90.00;;;;;;5022966;28;20030;-85
2024/01/16 04:26:08;;;;;;;5.17;0.80;;;1.30;90.00;;;;;;5011248;28;20500;-84
2024/01/16 04:28:34;;;;;;;4.87;1.33;;;1.20;89.90;;;;;;5017896;28;20393;-85
2024/01/16 04:31:01;;;;;;;4.60;0.73;;;1.20;89.90;;;;;;5024856;28;20064;-84
2024/01/16 04:33:27;;;;;;;3.03;0.73;;;1.20;89.90;;;;;;5006274;28;20045;-84
2024/01/16 04:35:52;;;;;;;12.23;1.90;;;1.30;90.00;;;;;;5004802;28;20046;-84
2024/01/16 04:38:18;;;;;;;5.97;1.33;;;1.20;89.90;;;;;;5009183;28;20042;-84
2024/01/16 04:40:44;;;;;;;6.00;0.83;;;1.20;89.90;;;;;;5025103;28;20030;-85
2024/01/16 04:43:09;;;;;;;2.97;0.70;;;1.30;90.00;;;;;;5024123;28;20049;-85
2024/01/16 04:45:35;;;;;;;3.80;0.70;;;1.30;90.00;;;;;;5020505;28;20054;-85
2024/01/16 04:48:00;;;;;;;7.23;0.80;;;1.30;90.00;;;;;;5007983;28;20044;-85
2024/01/16 04:50:31;;;;;;;5.63;0.87;;;1.30;89.90;;;;;;5009903;28;20041;-85
2024/01/16 04:53:01;;;;;;;5.83;0.70;;;1.30;89.80;;;;;;5022500;28;20092;-85
2024/01/16 04:55:27;;;;;;;2.93;0.90;;;1.30;89.80;;;;;;5004342;28;20596;-84
2024/01/16 04:57:54;;;;;;;5.03;0.70;;;1.30;89.80;;;;;;5000096;28;20045;-85
2024/01/16 05:00:20;;;;;;;5.57;1.10;;;1.30;89.80;;;;;;5025280;28;20034;-83
2024/01/16 05:02:46;;;;;;;4.83;1.00;;;1.30;89.80;;;;;;5004680;28;20100;-84
2024/01/16 05:05:12;;;;;;;7.23;0.80;;;1.30;89.70;;;;;;5021357;28;20072;-84
2024/01/16 05:07:38;;;;;;;7.03;0.90;;;1.30;89.70;;;;;;5021696;28;20484;-84
2024/01/16 05:10:06;;;;;;;1.93;0.70;;;1.30;89.60;;;;;;5023951;28;20063;-83
2024/01/16 05:12:31;;;;;;;5.63;0.70;;;1.30;89.60;;;;;;5025304;28;20034;-83
2024/01/16 05:14:57;;;;;;;5.43;0.70;;;1.30;89.60;;;;;;5015158;28;20046;-83
2024/01/16 05:17:23;;;;;;;3.27;0.80;;;1.30;89.60;;;;;;5004392;28;20564;-83
2024/01/16 05:19:49;;;;;;;9.37;1.20;;;1.30;89.50;;;;;;5020862;28;20094;-83
2024/01/16 05:22:15;;;;;;;4.13;0.70;;;1.30;89.90;;;;;;5005551;28;20120;-84
2024/01/16 05:24:41;;;;;;;6.27;1.10;;;1.30;89.50;;;;;;5018911;28;20046;-84
2024/01/16 05:27:06;;;;;;;6.17;0.97;;;1.20;89.50;;;;;;5024566;28;20049;-84
2024/01/16 05:29:32;;;;;;;3.07;0.60;;;1.30;89.50;;;;;;5010061;28;20042;-84
2024/01/16 05:31:57;;;;;;;5.23;0.93;;;1.20;89.50;;;;;;5025395;28;20034;-84
2024/01/16 05:34:23;;;;;;;4.17;0.73;;;1.80;89.90;;;;;;5011599;28;20393;-84
2024/01/16 05:36:49;;;;;;;5.27;0.77;;;1.30;89.70;;;;;;5007846;28;20034;-84
2024/01/16 05:39:14;;;;;;;5.97;0.80;;;1.30;89.80;;;;;;5024919;28;20476;-84
2024/01/16 05:41:40;;;;;;;3.23;0.60;;;1.30;89.80;;;;;;5026558;28;20049;-84
2024/01/16 05:44:06;;;;;;;4.23;0.60;;;1.30;89.80;;;;;;5006084;28;20112;-84
2024/01/16 05:46:32;;;;;;;4.07;0.83;;;1.30;89.80;;;;;;5006186;28;20509;-84
2024/01/16 05:48:58;;;;;;;2.87;0.77;;;1.30;89.90;;;;;;5013015;28;20407;-84
2024/01/16 05:51:24;;;;;;;1.87;0.60;;;1.30;89.90;;;;;;5025145;28;20045;-82
2024/01/16 05:53:50;;;;;;;6.00;0.90;;;1.30;89.90;;;;;;5028736;28;20496;-84
2024/01/16 05:56:15;;;;;;;5.60;1.60;;;1.30;89.90;;;;;;5022736;28;20030;-84
2024/01/16 05:58:41;;;;;;;4.20;1.40;;;1.30;89.90;;;;;;5026183;28;20042;-83
2024/01/16 06:01:06;;;;;;;9.13;1.30;;;1.30;89.80;;;;;;5010773;28;20041;-84
2024/01/16 06:03:32;;;;;;;4.60;0.80;;;1.30;89.90;;;;;;5023217;28;20485;-85
2024/01/16 06:05:58;;;;;;;2.93;0.80;;;1.30;89.90;;;;;;5011885;28;20116;-85
2024/01/16 06:08:24;;;;;;;3.70;0.77;;;1.30;89.90;;;;;;5025144;28;20120;-85
2024/01/16 06:10:50;;;;;;;2.87;0.90;;;1.30;89.90;;;;;;5009490;28;20073;-85
2024/01/16 06:13:18;;;;;;;6.13;0.90;;;1.30;89.90;;;;;;5009976;28;20401;-85
2024/01/16 06:15:44;;;;;;;5.33;0.87;;;1.40;90.00;;;;;;5024771;28;20048;-85
2024/01/16 06:18:10;;;;;;;2.80;1.00;;;1.40;90.00;;;;;;5008063;28;20026;-85
2024/01/16 06:20:35;;;;;;;3.10;1.07;;;1.40;90.00;;;;;;5010946;28;20040;-85
2024/01/16 06:23:01;;;;;;;11.33;0.90;;;1.40;90.00;;;;;;5025496;28;20050;-84
2024/01/16 06:25:26;;;;;;;4.83;0.63;;;1.40;90.00;;;;;;5011632;28;20041;-84
2024/01/16 06:27:52;;;;;;;5.60;2.30;;;1.40;90.00;;;;;;5009203;28;20045;-84
2024/01/16 06:30:18;;;;;;;5.77;0.97;;;1.40;90.00;;;;;;5006869;28;20034;-84
2024/01/16 06:32:43;;;;;;;6.87;0.83;;;1.40;90.00;;;;;;5005765;28;20038;-84
2024/01/16 06:35:09;;;;;;;3.83;0.70;;;1.40;90.00;;;;;;5021972;28;20513;-84
2024/01/16 06:37:34;;;;;;;3.60;0.80;;;1.40;90.00;;;;;;5020907;28;20036;-85
2024/01/16 06:40:00;;;;;;;3.90;0.70;;;1.40;90.00;;;;;;5022048;28;20071;-86
2024/01/16 06:42:25;;;;;;;2.20;0.77;;;1.40;90.10;;;;;;5008231;28;20175;-85
2024/01/16 06:44:51;;;;;;;3.50;0.77;;;1.40;90.10;;;;;;5003336;28;20056;-86
2024/01/16 06:47:17;;;;;;;3.37;1.07;;;1.40;90.10;;;;;;5004619;28;20056;-85
2024/01/16 06:49:42;;;;;;;5.17;1.10;;;1.40;90.20;;;;;;5029272;28;20415;-85
2024/01/16 06:52:09;;;;;;;4.97;1.97;;;1.40;90.20;;;;;;5006851;28;20037;-85
2024/01/16 06:54:34;;;;;;;9.23;1.50;;;1.40;90.20;;;;;;5011369;28;20116;-84
2024/01/16 06:57:00;;;;;;;5.97;1.47;;;1.40;90.30;;;;;;5020279;28;20070;-84
2024/01/16 06:59:26;;;;;;;4.47;1.70;;;1.50;90.30;;;;;;5025791;28;20465;-84
2024/01/16 07:01:51;;;;;;;6.37;1.63;;;1.50;90.30;;;;;;5027798;28;20042;-83
2024/01/16 07:04:17;;;;;;;6.43;1.90;;;1.50;90.40;;;;;;5029494;28;20042;-83
2024/01/16 07:06:43;;;;;;;7.20;2.07;;;1.50;90.40;;;;;;5008925;28;20049;-84
2024/01/16 07:09:12;;;;;;;5.50;2.10;;;1.50;90.40;;;;;;5026346;28;20473;-84
2024/01/16 07:11:42;;;;;;;7.83;1.90;;;1.50;90.40;;;;;;5008295;28;20041;-84
2024/01/16 07:14:11;;;;;;;7.73;1.80;;;1.50;90.40;;;;;;5020982;28;20041;-84
2024/01/16 07:16:37;;;;;;;7.60;2.67;;;1.50;90.40;;;;;;5021915;28;20456;-83
2024/01/16 07:19:03;;;;;;;9.10;2.33;;;1.50;90.40;;;;;;5026916;28;20030;-84
2024/01/16 07:21:28;;;;;;;6.70;2.30;;;1.50;90.40;;;;;;5011493;28;20118;-83
2024/01/16 07:23:54;;;;;;;3.53;1.90;;;1.50;90.50;;;;;;5024237;28;20077;-83
2024/01/16 07:26:20;;;;;;;4.60;2.30;;;1.50;90.40;;;;;;5010253;28;20033;-83
2024/01/16 07:28:47;;;;;;;9.17;2.90;;;1.50;90.40;;;;;;5025989;28;20042;-83
2024/01/16 07:31:14;;;;;;;5.37;2.40;;;1.50;90.40;;;;;;5028173;28;20466;-83
2024/01/16 07:33:39;;;;;;;6.23;3.00;;;1.50;90.40;;;;;;5012875;28;20038;-83
2024/01/16 07:36:07;;;;;;;7.73;2.90;;;1.60;90.50;;;;;;5027530;28;20029;-83
2024/01/16 07:38:33;;;;;;;6.77;2.50;;;1.60;90.50;;;;;;5009633;28;20038;-83
2024/01/16 07:40:59;;;;;;;6.47;2.47;;;1.60;90.50;;;;;;5029984;28;20045;-83
2024/01/16 07:43:25;;;;;;;5.80;2.87;;;1.60;90.50;;;;;;5027324;28;20038;-83
2024/01/16 07:45:51;;;;;;;5.13;2.43;;;2.00;90.60;;;;;;5008739;28;20045;-83
2024/01/16 07:48:16;;;;;;;8.60;3.13;;;1.60;90.50;;;;;;5025479;28;20110;-83
2024/01/16 07:50:42;;;;;;;7.73;3.23;;;1.60;90.60;;;;;;5025535;28;20022;-84
2024/01/16 07:53:07;;;;;;;6.23;3.00;;;1.60;90.60;;;;;;5027253;28;20558;-83
2024/01/16 07:55:33;;;;;;;6.43;3.40;;;1.70;90.60;;;;;;5023756;28;20042;-83
2024/01/16 07:57:59;;;;;;;8.87;4.17;;;1.60;90.60;;;;;;5008930;28;20484;-83
2024/01/16 08:00:24;;;;;;;6.97;2.80;;;1.70;90.70;;;;;;5007763;28;20029;-83
2024/01/16 08:02:50;;;;;;;5.83;3.33;;;1.70;90.70;;;;;;5026443;28;20033;-83
2024/01/16 08:05:15;;;;;;;6.37;3.00;;;1.70;90.70;;;;;;5026604;28;20042;-83
2024/01/16 08:07:44;;;;;;;6.33;3.00;;;1.70;90.70;;;;;;5026831;28;20034;-83
2024/01/16 08:10:10;;;;;;;7.37;3.70;;;1.70;90.70;;;;;;5026747;28;20120;-83
2024/01/16 08:12:37;;;;;;;6.73;3.57;;;1.70;90.70;;;;;;5011994;28;20037;-83
2024/01/16 08:15:03;;;;;;;8.77;4.13;;;1.80;90.80;;;;;;5027240;28;20037;-83
2024/01/16 08:17:29;;;;;;;7.33;4.37;;;1.80;90.80;;;;;;5007129;28;20041;-83
2024/01/16 08:19:55;;;;;;;7.93;4.20;;;1.80;90.80;;;;;;5025872;28;20260;-83
2024/01/16 08:22:20;;;;;;;7.07;4.20;;;1.80;90.80;;;;;;5010904;28;20049;-83
2024/01/16 08:24:46;;;;;;;9.33;4.53;;;1.80;90.80;;;;;;5025981;28;20038;-83
2024/01/16 08:27:12;;;;;;;10.57;4.70;;;1.80;90.80;;;;;;5006969;28;20041;-84
2024/01/16 08:29:37;;;;;;;6.33;3.80;;;1.80;90.80;;;;;;5025486;28;20041;-84
2024/01/16 08:32:04;;;;;;;8.27;3.73;;;1.80;90.80;;;;;;5021499;28;20038;-84
2024/01/16 08:34:29;;;;;;;7.90;3.90;;;1.80;90.80;;;;;;5007469;28;20046;-84
2024/01/16 08:36:56;;;;;;;6.03;3.40;;;1.90;90.80;;;;;;5006358;28;20128;-85
2024/01/16 08:39:23;;;;;;;6.23;3.23;;;1.90;90.80;;;;;;5015394;28;20453;-85
2024/01/16 08:41:49;;;;;;;7.93;3.30;;;1.90;90.90;;;;;;5007132;28;20033;-85
2024/01/16 08:44:15;;;;;;;7.27;3.33;;;1.90;90.90;;;;;;5004369;28;20064;-84
2024/01/16 08:46:40;;;;;;;6.40;3.10;;;1.90;90.90;;;;;;5006675;28;20045;-85
2024/01/16 08:49:06;;;;;;;7.20;3.13;;;1.90;90.90;;;;;;5015209;28;20112;-85
2024/01/16 08:51:32;;;;;;;6.00;3.43;;;1.90;90.90;;;;;;5006754;28;20050;-85
2024/01/16 08:53:57;;;;;;;5.63;2.90;;;1.90;91.00;;;;;;5021811;28;20059;-85
2024/01/16 08:56:23;;;;;;;6.87;3.40;;;1.90;91.00;;;;;;5016508;28;20086;-85
2024/01/16 08:58:48;;;;;;;7.77;3.47;;;2.00;91.00;;;;;;5001173;28;20034;-85
2024/01/16 09:01:14;;;;;;;7.93;4.00;;;2.00;91.00;;;;;;5007241;28;20544;-85
2024/01/16 09:03:41;;;;;;;13.10;4.43;;;2.00;91.10;;;;;;5016557;28;20049;-85
2024/01/16 09:06:06;;;;;;;8.83;4.93;;;2.00;91.10;;;;;;5020547;28;20029;-85
2024/01/16 09:08:32;;;;;;;10.97;4.63;;;2.00;91.10;;;;;;5005383;28;20044;-85
2024/01/16 09:10:58;;;;;;;8.50;5.17;;;2.10;91.10;;;;;;5007060;28;20038;-85
2024/01/16 09:13:23;;;;;;;10.03;5.40;;;2.10;91.20;;;;;;5008966;28;20408;-85
2024/01/16 09:15:49;;;;;;;7.87;4.90;;;2.10;91.20;;;;;;5019410;28;20467;-85
2024/01/16 09:18:16;;;;;;;9.03;5.83;;;2.10;91.20;;;;;;5023180;28;20064;-86
2024/01/16 09:20:42;;;;;;;7.57;4.17;;;2.10;91.20;;;;;;5019897;28;20049;-86
2024/01/16 09:23:08;;;;;;;8.47;4.63;;;2.10;91.20;;;;;;5022658;28;20038;-86
2024/01/16 09:25:37;;;;;;;7.90;4.80;;;2.20;91.20;;;;;;5005818;28;20626;-86
2024/01/16 09:28:03;;;;;;;10.13;4.60;;;2.20;91.20;;;;;;5021218;28;20042;-86
2024/01/16 09:30:29;;;;;;;9.80;4.03;;;2.30;91.20;;;;;;5005570;28;20029;-86
2024/01/16 09:32:54;;;;;;;6.57;4.00;;;2.20;91.10;;;;;;5003350;28;20041;-86
2024/01/16 09:35:20;;;;;;;7.67;4.03;;;2.20;91.00;;;;;;5003415;28;20181;-86
2024/01/16 09:37:46;;;;;;;7.70;4.10;;;2.20;91.00;;;;;;5010704;28;20052;-86
2024/01/16 09:40:13;;;;;;;6.83;4.03;;;2.20;91.00;;;;;;5003254;28;20036;-86
2024/01/16 09:42:40;;;;;;;6.83;3.97;;;2.40;91.00;;;;;;5005615;28;20064;-86
2024/01/16 09:45:08;;;;;;;6.97;4.43;;;2.30;91.00;;;;;;5001968;28;20528;-87
2024/01/16 09:47:34;;;;;;;7.10;4.00;;;2.30;91.00;;;;;;5000898;28;20420;-86
2024/01/16 09:50:02;;;;;;;7.57;3.80;;;2.30;90.90;;;;;;5022561;28;20099;-86
2024/01/16 09:52:29;;;;;;;7.80;4.13;;;2.30;90.90;;;;;;5019636;28;20086;-86
2024/01/16 09:54:55;;;;;;;8.90;3.47;;;2.30;90.90;;;;;;5022602;28;20132;-86
2024/01/16 09:57:25;;;;;;;8.93;3.37;;;2.30;90.90;;;;;;5003275;28;20052;-87
2024/01/16 09:59:51;;;;;;;5.63;2.97;;;2.30;90.90;;;;;;5006665;28;20037;-87
2024/01/16 10:02:19;;;;;;;7.13;2.70;;;2.40;90.90;;;;;;5004097;28;20045;-86
2024/01/16 10:04:45;;;;;;;8.17;3.37;;;2.40;90.80;;;;;;5001802;28;20034;-87
2024/01/16 10:07:14;;;;;;;6.07;2.33;;;2.40;90.80;;;;;;5004584;28;20083;-86
2024/01/16 10:09:39;;;;;;;3.53;1.60;;;2.40;90.80;;;;;;5003054;28;20144;-86
2024/01/16 10:12:06;;;;;;;5.20;1.63;;;2.40;90.80;;;;;;5024129;28;20492;-86
2024/01/16 10:14:33;;;;;;;8.47;2.53;;;2.40;90.80;;;;;;5006350;28;20033;-86
2024/01/16 10:17:05;;;;;;;5.33;1.60;;;2.40;90.80;;;;;;5021959;28;20083;-86
2024/01/16 10:19:31;;;;;;;7.20;1.30;;;2.40;90.70;;;;;;5007624;28;20041;-87
2024/01/16 10:22:06;;;;;;;5.37;1.53;;;2.40;90.70;;;;;;5031420;28;20042;-86
2024/01/16 10:24:33;;;;;;;3.63;0.95;;;2.50;90.70;;;;;;5006159;28;20041;-87
2024/01/16 10:27:03;;;;;;;5.10;1.00;;;2.50;90.60;;;;;;5005626;28;20036;-86
2024/01/16 10:29:31;;;;;;;3.90;1.13;;;2.50;90.60;;;;;;5023344;28;20045;-87
2024/01/16 10:31:57;;;;;;;5.27;1.27;;;2.50;90.50;;;;;;5009449;28;20081;-86
2024/01/16 10:34:23;;;;;;;6.53;1.53;;;2.50;90.40;;;;;;5031175;28;20069;-86
2024/01/16 10:36:52;;;;;;;4.03;1.47;;;2.50;90.40;;;;;;5008619;28;20103;-86
2024/01/16 10:39:18;;;;;;;4.87;1.27;;;2.50;90.30;;;;;;5023752;28;20045;-86
2024/01/16 10:41:57;;;;;;;3.20;1.10;;;2.50;90.30;;;;;;5025669;28;20034;-86
2024/01/16 10:44:23;;;;;;;5.77;0.90;;;2.50;90.20;;;;;;5003479;28;20042;-86
2024/01/16 10:46:49;;;;;;;4.43;1.87;;;3.10;90.20;;;;;;5006581;28;20050;-86
2024/01/16 10:49:15;;;;;;;7.03;1.00;;;2.50;90.00;;;;;;5022672;28;20065;-87
2024/01/16 10:51:43;;;;;;;6.13;1.27;;;2.40;90.00;;;;;;5016631;28;20009;-85
2024/01/16 10:54:13;;;;;;;4.30;1.20;;;2.50;90.00;;;;;;5010871;28;20045;-86
2024/01/16 10:56:47;;;;;;;4.50;0.80;;;2.50;90.00;;;;;;5007165;28;20041;-86
2024/01/16 10:59:21;;;;;;;5.20;1.17;;;2.40;90.00;;;;;;4998605;28;20045;-85
2024/01/16 11:01:54;;;;;;;4.00;1.17;;;2.40;89.80;;;;;;5021546;28;20564;-84
2024/01/16 11:04:21;;;;;;;5.07;0.90;;;2.40;89.70;;;;;;5021287;28;20039;-86
2024/01/16 11:06:52;;;;;;;5.33;0.80;;;2.40;89.60;;;;;;5025798;28;20416;-86
2024/01/16 11:09:18;;;;;;;4.97;1.20;;;2.30;89.30;;;;;;5002464;28;20034;-86
2024/01/16 11:11:46;;;;;;;6.23;1.43;;;2.90;89.60;;;;;;4999439;28;20036;-86
2024/01/16 11:14:13;;;;;;;4.00;0.90;;;2.90;89.80;;;;;;5008511;28;20041;-86
2024/01/16 11:16:40;;;;;;;9.10;1.50;;;2.20;89.50;;;;;;5007983;28;20068;-86
2024/01/16 11:19:08;;;;;;;4.87;0.90;;;3.00;90.00;;;;;;5023382;28;20454;-86
2024/01/16 11:21:38;;;;;;;4.27;1.10;;;2.20;89.70;;;;;;5003995;28;20545;-86
2024/01/16 11:24:04;;;;;;;4.33;1.10;;;2.20;89.70;;;;;;5002301;28;20050;-86
2024/01/16 11:26:36;;;;;;;4.93;1.10;;;2.10;89.70;;;;;;5005031;28;20038;-86
2024/01/16 11:29:28;;;;;;;4.73;1.00;;;2.10;89.80;;;;;;5026057;28;20046;-86
2024/01/16 11:31:54;;;;;;;6.40;1.13;;;2.10;89.80;;;;;;4993696;28;20060;-86
2024/01/16 11:34:42;;;;;;;7.37;1.43;;;2.00;89.90;;;;;;5024770;28;20033;-86
2024/01/16 11:37:08;;;;;;;5.27;1.10;;;2.00;89.90;;;;;;5004253;28;20037;-86
2024/01/16 11:39:36;;;;;;;4.67;1.43;;;2.00;90.00;;;;;;5000729;28;20600;-85
2024/01/16 11:42:02;;;;;;;5.00;1.07;;;2.00;90.00;;;;;;4999218;28;20489;-86
2024/01/16 11:44:42;;;;;;;5.87;1.77;;;2.00;90.00;;;;;;5023040;28;20045;-86
2024/01/16 11:47:08;;;;;;;3.90;1.10;;;1.90;90.00;;;;;;4990948;28;20183;-85
2024/01/16 11:49:40;;;;;;;4.40;1.50;;;1.90;90.10;;;;;;5024082;28;20111;-85
2024/01/16 11:52:06;;;;;;;3.10;1.30;;;1.90;90.10;;;;;;5020897;28;20050;-85
2024/01/16 11:54:33;;;;;;;5.83;1.70;;;1.90;90.10;;;;;;5023367;28;20140;-86
2024/01/16 11:57:17;;;;;;;5.30;1.73;;;1.90;90.20;;;;;;5021025;28;20045;-86
2024/01/16 12:00:14;;;;;;;10.20;2.53;;;1.80;90.30;;;;;;5002527;28;20420;-86
2024/01/16 12:02:52;;;;;;;4.87;2.10;;;1.80;90.50;;;;;;5001781;28;20042;-86
2024/01/16 12:05:18;;;;;;;5.87;2.13;;;1.80;90.40;;;;;;5018365;28;20046;-86
2024/01/16 12:07:49;;;;;;;6.03;2.37;;;1.80;90.40;;;;;;5023634;28;20061;-86
2024/01/16 12:10:19;;;;;;;7.47;2.83;;;1.80;90.40;;;;;;5020987;28;20041;-86
2024/01/16 12:12:46;;;;;;;9.10;3.13;;;1.80;90.40;;;;;;5017135;28;20036;-86
2024/01/16 12:15:16;;;;;;;6.77;3.60;;;1.80;90.50;;;;;;5000418;28;20064;-85
2024/01/16 12:17:59;;;;;;;9.97;3.97;;;2.50;90.70;;;;;;5012414;28;20038;-85
2024/01/16 12:20:33;;;;;;;7.73;4.30;;;1.80;90.50;;;;;;5016878;28;20041;-85
2024/01/16 12:23:03;;;;;;;9.17;4.60;;;1.80;90.60;;;;;;5017101;28;20041;-86
2024/01/16 12:25:31;;;;;;;8.57;4.87;;;1.80;90.60;;;;;;5014782;28;20038;-85
2024/01/16 12:28:02;;;;;;;13.63;4.90;;;1.80;90.60;;;;;;5004729;28;20038;-85
2024/01/16 12:30:30;;;;;;;7.73;4.43;;;1.80;90.60;;;;;;5019735;28;20104;-85
2024/01/16 12:33:10;;;;;;;11.60;5.80;;;1.80;90.60;;;;;;5021938;28;20140;-85
2024/01/16 12:35:36;;;;;;;11.27;5.53;;;1.80;90.60;;;;;;5004482;28;20061;-86
2024/01/16 12:38:03;;;;;;;9.60;5.57;;;1.70;90.50;;;;;;5009072;28;20041;-85
2024/01/16 12:40:29;;;;;;;13.73;5.97;;;1.70;90.50;;;;;;5019710;28;20046;-85
2024/01/16 12:42:55;;;;;;;10.80;6.30;;;1.70;90.40;;;;;;5017811;28;20048;-85
2024/01/16 12:45:22;;;;;;;12.77;6.60;;;1.70;90.40;;;;;;5001699;28;20523;-86
2024/01/16 12:47:57;;;;;;;13.83;6.33;;;1.70;90.40;;;;;;5021130;28;20045;-85
2024/01/16 12:50:27;;;;;;;12.17;5.90;;;1.70;90.40;;;;;;5018237;28;20542;-84
2024/01/16 12:53:10;;;;;;;14.43;6.40;;;1.70;90.60;;;;;;5006523;28;20124;-85